Time;durP1;ratioP1;P1;durP2;ratioP2;P2;SDS_P1;SDS_P2;PMS_P1;PMS_P2;Temp;Humidity;BMP_temperature;BMP_pressure;BME280_temperature;BME280_humidity;BME280_pressure;Samples;Min_cycle;Max_cycle;Signal;HPM_P1;HPM_P2
2023/05/24 00:00:56;;;;;;;18.75;6.45;;;12.10;99.90;;;;;;2095480;28;20131;-74
2023/05/24 00:01:57;;;;;;;18.58;6.15;;;12.10;99.90;;;;;;2102087;28;20617;-75
2023/05/24 00:02:58;;;;;;;16.23;6.03;;;12.10;99.90;;;;;;2112949;28;20490;-75
2023/05/24 00:03:59;;;;;;;13.32;6.05;;;12.10;99.90;;;;;;2113190;28;20035;-75
2023/05/24 00:05:00;;;;;;;18.17;6.65;;;12.10;99.90;;;;;;2112737;28;20110;-74
2023/05/24 00:06:01;;;;;;;14.18;6.03;;;12.10;99.90;;;;;;2112745;28;20118;-74
2023/05/24 00:07:02;;;;;;;18.20;6.10;;;12.10;99.90;;;;;;2110656;28;20031;-75
2023/05/24 00:08:03;;;;;;;16.10;6.00;;;12.10;99.90;;;;;;2108785;28;20034;-75
2023/05/24 00:09:04;;;;;;;14.88;5.82;;;12.10;99.90;;;;;;2103903;28;20390;-75
2023/05/24 00:10:05;;;;;;;15.95;6.22;;;12.10;99.90;;;;;;2103782;28;20027;-75
2023/05/24 00:11:06;;;;;;;17.15;6.43;;;12.10;99.90;;;;;;2103907;28;20092;-75
2023/05/24 00:12:06;;;;;;;19.52;5.95;;;12.10;99.90;;;;;;2118326;27;20551;-75
2023/05/24 00:13:07;;;;;;;17.00;5.93;;;12.10;99.90;;;;;;2113784;27;20063;-75
2023/05/24 00:14:08;;;;;;;15.38;5.68;;;12.10;99.90;;;;;;2112520;28;20446;-75
2023/05/24 00:15:09;;;;;;;15.93;5.90;;;12.10;99.90;;;;;;2112940;28;20138;-75
2023/05/24 00:16:09;;;;;;;19.33;6.10;;;12.10;99.90;;;;;;2103591;28;20035;-75
2023/05/24 00:17:11;;;;;;;17.10;5.65;;;12.10;99.90;;;;;;2093899;28;20718;-75
2023/05/24 00:18:12;;;;;;;17.05;5.57;;;12.00;99.90;;;;;;2103786;28;20031;-75
2023/05/24 00:19:17;;;;;;;18.98;5.80;;;12.00;99.90;;;;;;2112948;28;20030;-74
2023/05/24 00:20:19;;;;;;;18.55;6.13;;;12.00;99.90;;;;;;2112749;28;20027;-74
2023/05/24 00:21:20;;;;;;;13.98;5.57;;;12.00;99.90;;;;;;2101797;28;20062;-75
2023/05/24 00:22:20;;;;;;;17.60;5.63;;;12.00;99.90;;;;;;2095614;28;20038;-76
2023/05/24 00:23:21;;;;;;;16.60;5.78;;;11.90;99.90;;;;;;2103821;28;20528;-74
2023/05/24 00:24:21;;;;;;;21.65;5.80;;;11.90;99.90;;;;;;2112973;28;20076;-75
2023/05/24 00:25:22;;;;;;;15.82;5.55;;;12.00;99.90;;;;;;2112815;28;20200;-75
2023/05/24 00:26:22;;;;;;;16.70;5.85;;;11.90;99.90;;;;;;2101999;28;20020;-75
2023/05/24 00:27:29;;;;;;;18.20;6.03;;;11.90;99.90;;;;;;2104875;28;20032;-75
2023/05/24 00:28:30;;;;;;;17.67;5.43;;;11.90;99.90;;;;;;2112688;28;20705;-76
2023/05/24 00:29:31;;;;;;;15.50;5.50;;;11.90;99.90;;;;;;2103844;28;20515;-75
2023/05/24 00:30:31;;;;;;;17.85;6.13;;;11.90;99.90;;;;;;2095189;28;20723;-75
2023/05/24 00:31:32;;;;;;;19.83;5.90;;;11.90;99.90;;;;;;2102043;28;20032;-74
2023/05/24 00:32:33;;;;;;;18.73;5.65;;;11.90;99.90;;;;;;2105879;28;20021;-74
2023/05/24 00:33:33;;;;;;;17.52;5.25;;;11.90;99.90;;;;;;2095999;28;20546;-74
2023/05/24 00:34:34;;;;;;;14.32;5.05;;;11.90;99.90;;;;;;2095389;28;20058;-74
2023/05/24 00:35:35;;;;;;;22.60;5.78;;;11.90;99.90;;;;;;2086897;28;20032;-74
2023/05/24 00:36:36;;;;;;;15.55;5.22;;;11.90;99.90;;;;;;2102107;28;20024;-76
2023/05/24 00:37:40;;;;;;;15.35;5.15;;;11.90;99.90;;;;;;2095541;28;20042;-75
2023/05/24 00:38:41;;;;;;;12.30;4.50;;;11.90;99.90;;;;;;2096676;28;20024;-75
2023/05/24 00:39:42;;;;;;;21.65;5.10;;;11.90;99.90;;;;;;2116461;27;20089;-75
2023/05/24 00:40:44;;;;;;;16.80;5.32;;;12.00;99.90;;;;;;2119727;27;20031;-75
2023/05/24 00:41:44;;;;;;;17.02;5.20;;;11.90;99.90;;;;;;2107479;27;20079;-75
2023/05/24 00:42:45;;;;;;;13.45;4.65;;;11.90;99.90;;;;;;2102722;28;20127;-75
2023/05/24 00:43:45;;;;;;;17.30;5.05;;;11.90;99.90;;;;;;2103800;28;20036;-74
2023/05/24 00:44:46;;;;;;;17.10;5.22;;;11.90;99.90;;;;;;2103690;28;20024;-74
2023/05/24 00:45:47;;;;;;;18.25;5.28;;;11.90;99.90;;;;;;2103942;28;20020;-74
2023/05/24 00:46:48;;;;;;;17.40;5.05;;;11.90;99.90;;;;;;2110707;28;20015;-75
2023/05/24 00:47:49;;;;;;;17.70;5.13;;;11.90;99.90;;;;;;2103821;28;20078;-74
2023/05/24 00:48:50;;;;;;;16.35;5.22;;;11.90;99.90;;;;;;2103560;28;20024;-75
2023/05/24 00:49:51;;;;;;;14.88;4.90;;;11.90;99.90;;;;;;2112965;28;20072;-74
2023/05/24 00:50:52;;;;;;;18.27;5.15;;;11.90;99.90;;;;;;2112615;28;20563;-75
2023/05/24 00:51:53;;;;;;;16.25;4.70;;;11.90;99.90;;;;;;2101777;28;20505;-75
2023/05/24 00:52:54;;;;;;;20.88;5.45;;;11.90;99.90;;;;;;2086942;28;20064;-74
2023/05/24 00:53:55;;;;;;;14.90;5.25;;;11.80;99.90;;;;;;2086953;28;20670;-74
2023/05/24 00:54:56;;;;;;;15.15;5.18;;;11.80;99.90;;;;;;2103509;28;20036;-74
2023/05/24 00:55:58;;;;;;;14.77;4.97;;;11.80;99.90;;;;;;2103576;28;20545;-74
2023/05/24 00:57:00;;;;;;;16.13;5.07;;;11.80;99.90;;;;;;2107694;28;20110;-74
2023/05/24 00:58:01;;;;;;;16.08;5.20;;;11.80;99.90;;;;;;2112740;28;20046;-74
2023/05/24 00:59:02;;;;;;;15.93;4.85;;;11.80;99.90;;;;;;2112326;28;20118;-75
2023/05/24 01:00:04;;;;;;;17.63;4.65;;;11.80;99.90;;;;;;2118774;27;20114;-75
2023/05/24 01:01:05;;;;;;;18.75;5.18;;;11.80;99.90;;;;;;2112127;28;20379;-74
2023/05/24 01:02:06;;;;;;;17.35;5.20;;;11.80;99.90;;;;;;2110126;27;20019;-75
2023/05/24 01:03:07;;;;;;;16.27;4.85;;;11.80;99.90;;;;;;2111102;28;20035;-75
2023/05/24 01:04:07;;;;;;;16.02;5.07;;;11.70;99.90;;;;;;2107200;28;20888;-75
2023/05/24 01:05:12;;;;;;;14.52;4.78;;;11.70;99.90;;;;;;2111126;28;20023;-74
2023/05/24 01:06:14;;;;;;;19.45;5.35;;;11.70;99.90;;;;;;2103473;28;20036;-74
2023/05/24 01:07:53;;;;;;;17.88;5.32;;;11.70;99.90;;;;;;2111972;28;20349;-74
2023/05/24 01:09:08;;;;;;;15.65;5.00;;;11.60;99.90;;;;;;2100240;27;20307;-74
2023/05/24 01:10:38;;;;;;;14.57;4.72;;;11.60;99.90;;;;;;2121157;27;20031;-74
2023/05/24 01:11:58;;;;;;;16.55;4.50;;;11.70;99.90;;;;;;2105062;28;20426;-73
2023/05/24 01:13:15;;;;;;;14.23;5.05;;;11.70;99.90;;;;;;2097722;28;20024;-74
2023/05/24 01:14:28;;;;;;;15.48;5.30;;;11.70;99.90;;;;;;2098508;28;20033;-75
2023/05/24 01:15:44;;;;;;;18.00;5.65;;;11.80;99.90;;;;;;2096969;28;20032;-74
2023/05/24 01:17:08;;;;;;;18.15;5.13;;;11.80;99.90;;;;;;2092790;28;20028;-75
2023/05/24 01:18:12;;;;;;;17.30;5.20;;;11.80;99.90;;;;;;2102095;28;20032;-74
2023/05/24 01:19:50;;;;;;;14.00;5.05;;;11.80;99.90;;;;;;2120809;27;20133;-73
2023/05/24 01:21:10;;;;;;;16.10;4.85;;;11.80;99.90;;;;;;2104154;28;20529;-74
2023/05/24 01:22:32;;;;;;;18.73;5.63;;;11.80;99.90;;;;;;2109549;28;20089;-75
2023/05/24 01:24:01;;;;;;;15.18;4.63;;;11.80;99.90;;;;;;2112350;28;20214;-75
2023/05/24 01:25:37;;;;;;;17.02;5.07;;;11.80;99.90;;;;;;2096921;28;20033;-75
2023/05/24 01:26:56;;;;;;;14.52;5.10;;;11.80;99.90;;;;;;2094465;28;20062;-74
2023/05/24 01:27:58;;;;;;;19.23;5.55;;;11.80;99.90;;;;;;2102846;28;20058;-75
2023/05/24 01:29:01;;;;;;;20.50;5.47;;;11.80;99.90;;;;;;2095246;28;20108;-75
2023/05/24 01:30:03;;;;;;;14.68;4.97;;;11.70;99.90;;;;;;2086853;28;20032;-75
2023/05/24 01:31:04;;;;;;;15.95;4.90;;;11.70;99.90;;;;;;2086618;28;20033;-76
2023/05/24 01:32:05;;;;;;;12.35;4.70;;;11.70;99.90;;;;;;2092960;28;20491;-75
2023/05/24 01:33:06;;;;;;;15.05;5.13;;;11.70;99.90;;;;;;2103942;28;20059;-75
2023/05/24 01:34:07;;;;;;;16.13;4.82;;;11.70;99.90;;;;;;2104015;28;20475;-75
2023/05/24 01:35:08;;;;;;;14.02;4.65;;;11.60;99.90;;;;;;2095249;28;20036;-74
2023/05/24 01:36:10;;;;;;;13.20;4.47;;;11.60;99.90;;;;;;2096105;28;20028;-75
2023/05/24 01:37:10;;;;;;;15.80;4.80;;;11.50;99.90;;;;;;2095922;28;20028;-74
2023/05/24 01:38:14;;;;;;;20.00;4.82;;;11.50;99.90;;;;;;2105757;28;20500;-75
2023/05/24 01:39:15;;;;;;;18.30;4.43;;;11.40;99.90;;;;;;2105885;28;20036;-76
2023/05/24 01:40:16;;;;;;;15.40;4.75;;;11.40;99.90;;;;;;2095920;28;20036;-75
2023/05/24 01:41:42;;;;;;;14.07;4.72;;;11.40;99.90;;;;;;2087145;28;20064;-75
2023/05/24 01:43:00;;;;;;;15.55;4.35;;;11.40;99.90;;;;;;2098648;28;20036;-75
2023/05/24 01:44:14;;;;;;;15.38;4.60;;;11.30;99.90;;;;;;2094907;28;20032;-75
2023/05/24 01:45:38;;;;;;;18.15;5.07;;;11.30;99.90;;;;;;2096692;28;20127;-75
2023/05/24 01:46:38;;;;;;;18.90;4.88;;;11.30;99.90;;;;;;2098436;28;20097;-76
2023/05/24 01:48:06;;;;;;;15.95;4.78;;;11.30;99.90;;;;;;2094868;28;20044;-75
2023/05/24 01:49:19;;;;;;;14.40;4.55;;;11.30;99.90;;;;;;2102456;28;20027;-75
2023/05/24 01:50:37;;;;;;;16.63;4.95;;;11.30;99.90;;;;;;2095235;28;20036;-75
2023/05/24 01:51:47;;;;;;;19.55;4.80;;;11.30;99.90;;;;;;2092167;28;20032;-75
2023/05/24 01:52:50;;;;;;;15.10;4.73;;;11.30;99.90;;;;;;2088007;28;20486;-74
2023/05/24 01:53:52;;;;;;;13.05;4.47;;;11.30;99.90;;;;;;2103107;28;20284;-75
2023/05/24 01:54:55;;;;;;;12.80;4.65;;;11.30;99.90;;;;;;2112219;28;20059;-74
2023/05/24 01:55:57;;;;;;;17.17;5.00;;;11.30;99.90;;;;;;2101842;28;20438;-75
2023/05/24 01:57:01;;;;;;;15.90;4.60;;;11.30;99.90;;;;;;2106740;28;20019;-75
2023/05/24 01:58:04;;;;;;;14.63;4.22;;;11.40;99.90;;;;;;2103366;28;20032;-74
2023/05/24 01:59:05;;;;;;;15.98;4.97;;;11.40;99.90;;;;;;2094823;28;20048;-74
2023/05/24 02:00:07;;;;;;;15.85;4.35;;;11.40;99.90;;;;;;2103074;28;20030;-74
2023/05/24 02:01:14;;;;;;;13.45;4.07;;;11.40;99.90;;;;;;2089048;28;20036;-74
2023/05/24 02:02:15;;;;;;;15.02;4.65;;;11.40;99.90;;;;;;2103271;28;20100;-75
2023/05/24 02:03:16;;;;;;;12.90;4.30;;;11.50;99.90;;;;;;2103111;28;20089;-74
2023/05/24 02:04:17;;;;;;;15.50;4.68;;;11.50;99.90;;;;;;2112452;28;20740;-74
2023/05/24 02:05:20;;;;;;;18.70;4.75;;;11.50;99.90;;;;;;2103224;28;20017;-74
2023/05/24 02:06:20;;;;;;;15.85;4.65;;;11.40;99.90;;;;;;2095716;28;20025;-75
2023/05/24 02:07:21;;;;;;;13.77;4.20;;;11.40;99.90;;;;;;2102707;28;20013;-75
2023/05/24 02:08:22;;;;;;;14.05;4.00;;;11.40;99.90;;;;;;2090240;28;20042;-74
2023/05/24 02:09:22;;;;;;;15.48;4.55;;;11.40;99.90;;;;;;2103165;28;20028;-74
2023/05/24 02:10:23;;;;;;;17.23;4.53;;;11.30;99.90;;;;;;2099204;28;20035;-73
2023/05/24 02:11:24;;;;;;;15.70;4.35;;;11.30;99.90;;;;;;2089997;28;20032;-74
2023/05/24 02:12:26;;;;;;;18.90;4.50;;;11.20;99.90;;;;;;2103537;28;20044;-74
2023/05/24 02:13:26;;;;;;;20.00;4.55;;;11.20;99.90;;;;;;2103120;28;20503;-74
2023/05/24 02:14:27;;;;;;;16.73;4.88;;;11.20;99.90;;;;;;2103292;28;20723;-74
2023/05/24 02:15:29;;;;;;;13.00;3.97;;;11.20;99.90;;;;;;2102880;28;20812;-75
2023/05/24 02:16:29;;;;;;;18.80;4.93;;;11.10;99.90;;;;;;2101374;28;20100;-75
2023/05/24 02:17:31;;;;;;;17.20;4.95;;;11.10;99.90;;;;;;2094980;28;20058;-74
2023/05/24 02:18:33;;;;;;;17.38;4.32;;;11.10;99.90;;;;;;2087028;28;20625;-74
2023/05/24 02:19:35;;;;;;;14.95;4.60;;;11.10;99.90;;;;;;2094744;28;20031;-74
2023/05/24 02:20:36;;;;;;;16.25;4.53;;;11.10;99.90;;;;;;2091365;28;20594;-74
2023/05/24 02:21:37;;;;;;;18.15;4.50;;;11.00;99.90;;;;;;2097262;28;20059;-74
2023/05/24 02:22:37;;;;;;;13.80;4.45;;;11.00;99.90;;;;;;2103500;28;20035;-74
2023/05/24 02:23:38;;;;;;;17.08;4.13;;;11.00;99.90;;;;;;2094953;28;20108;-75
2023/05/24 02:24:42;;;;;;;14.20;4.30;;;11.00;99.90;;;;;;2103346;28;20143;-74
2023/05/24 02:25:42;;;;;;;16.75;4.72;;;11.00;99.90;;;;;;2112378;28;20031;-74
2023/05/24 02:26:44;;;;;;;17.88;4.47;;;11.00;99.90;;;;;;2110478;28;20023;-75
2023/05/24 02:27:45;;;;;;;14.60;4.20;;;11.00;99.90;;;;;;2103230;28;20047;-74
2023/05/24 02:28:47;;;;;;;18.08;4.30;;;10.90;99.90;;;;;;2103385;28;20063;-74
2023/05/24 02:29:47;;;;;;;13.63;4.20;;;10.90;99.90;;;;;;2102910;28;20038;-74
2023/05/24 02:30:48;;;;;;;15.88;4.22;;;11.00;99.90;;;;;;2103578;28;20035;-75
2023/05/24 02:31:55;;;;;;;14.40;4.47;;;11.00;99.90;;;;;;2092740;28;20024;-74
2023/05/24 02:32:56;;;;;;;14.00;4.40;;;11.00;99.90;;;;;;2103233;28;20020;-74
2023/05/24 02:33:57;;;;;;;16.10;4.07;;;10.90;99.90;;;;;;2103153;28;20039;-74
2023/05/24 02:34:58;;;;;;;19.05;4.93;;;10.90;99.90;;;;;;2094521;28;20028;-74
2023/05/24 02:35:58;;;;;;;16.55;4.25;;;10.90;99.90;;;;;;2094488;28;20401;-74
2023/05/24 02:36:59;;;;;;;14.05;4.10;;;10.90;99.90;;;;;;2099222;28;20484;-75
2023/05/24 02:38:01;;;;;;;17.48;4.60;;;10.80;99.90;;;;;;2103403;28;20052;-74
2023/05/24 02:39:03;;;;;;;15.07;4.68;;;10.80;99.90;;;;;;2103194;28;20024;-74
2023/05/24 02:40:04;;;;;;;16.33;4.20;;;10.80;99.90;;;;;;2103078;28;20055;-73
2023/05/24 02:41:04;;;;;;;14.93;4.35;;;10.80;99.90;;;;;;2112014;28;20061;-75
2023/05/24 02:42:05;;;;;;;12.75;3.65;;;10.80;99.90;;;;;;2101018;28;20119;-74
2023/05/24 02:43:08;;;;;;;14.90;4.10;;;10.80;99.90;;;;;;2103221;28;20039;-75
2023/05/24 02:44:08;;;;;;;13.27;3.83;;;10.80;99.90;;;;;;2112012;28;20023;-74
2023/05/24 02:45:09;;;;;;;14.35;4.43;;;10.80;99.90;;;;;;2094591;28;20484;-76
2023/05/24 02:46:10;;;;;;;13.52;3.78;;;10.80;99.90;;;;;;2094647;28;20032;-74
2023/05/24 02:47:11;;;;;;;13.38;4.28;;;10.80;99.90;;;;;;2101653;28;20057;-76
2023/05/24 02:48:11;;;;;;;14.55;3.90;;;10.80;99.90;;;;;;2102884;28;20027;-75
2023/05/24 02:49:12;;;;;;;20.92;4.72;;;10.80;99.90;;;;;;2102737;28;20052;-74
2023/05/24 02:50:13;;;;;;;15.93;4.20;;;10.80;99.90;;;;;;2094533;28;20040;-75
2023/05/24 02:51:13;;;;;;;15.27;4.28;;;10.80;99.90;;;;;;2103142;28;20354;-75
2023/05/24 02:52:15;;;;;;;14.73;4.47;;;10.80;99.90;;;;;;2096559;28;20541;-75
2023/05/24 02:53:15;;;;;;;18.17;4.35;;;10.80;99.90;;;;;;2102230;28;20027;-75
2023/05/24 02:54:17;;;;;;;14.63;4.30;;;10.80;99.90;;;;;;2102829;28;20024;-75
2023/05/24 02:55:18;;;;;;;15.32;4.03;;;10.80;99.90;;;;;;2102829;28;20042;-75
2023/05/24 02:56:18;;;;;;;17.05;4.40;;;10.80;99.90;;;;;;2092751;28;20031;-75
2023/05/24 02:57:19;;;;;;;13.80;4.25;;;10.80;99.90;;;;;;2094712;28;20020;-76
2023/05/24 02:58:20;;;;;;;15.18;4.57;;;10.80;99.90;;;;;;2094393;28;20024;-74
2023/05/24 02:59:23;;;;;;;17.05;4.53;;;10.70;99.90;;;;;;2094060;28;20040;-75
2023/05/24 03:00:24;;;;;;;17.80;4.82;;;10.70;99.90;;;;;;2094511;28;20056;-75
2023/05/24 03:01:26;;;;;;;14.00;4.47;;;10.60;99.90;;;;;;2099610;28;20036;-76
2023/05/24 03:02:28;;;;;;;18.67;4.85;;;10.70;99.90;;;;;;2094859;28;20439;-74
2023/05/24 03:03:29;;;;;;;18.17;4.80;;;10.70;99.90;;;;;;2102937;28;20085;-74
2023/05/24 03:04:31;;;;;;;14.07;4.70;;;10.70;99.90;;;;;;2104274;28;20040;-75
2023/05/24 03:05:32;;;;;;;18.88;4.43;;;10.70;99.90;;;;;;2096041;28;20036;-74
2023/05/24 03:06:32;;;;;;;15.43;4.20;;;10.70;99.90;;;;;;2094168;28;20032;-74
2023/05/24 03:07:33;;;;;;;15.30;4.30;;;10.80;99.90;;;;;;2095618;28;20111;-75
2023/05/24 03:08:36;;;;;;;14.07;4.38;;;10.80;99.90;;;;;;2097717;28;20117;-75
2023/05/24 03:09:36;;;;;;;13.85;4.55;;;10.80;99.90;;;;;;2104087;28;20113;-74
2023/05/24 03:10:37;;;;;;;14.32;4.32;;;10.90;99.90;;;;;;2104441;28;20020;-74
2023/05/24 03:11:40;;;;;;;15.75;4.55;;;10.90;99.90;;;;;;2094079;28;20668;-75
2023/05/24 03:12:40;;;;;;;14.55;4.28;;;10.90;99.90;;;;;;2095312;28;20108;-74
2023/05/24 03:13:41;;;;;;;18.33;4.80;;;10.90;99.90;;;;;;2096098;28;20052;-74
2023/05/24 03:14:42;;;;;;;17.98;4.85;;;10.90;99.90;;;;;;2095637;28;20052;-74
2023/05/24 03:15:42;;;;;;;15.23;4.65;;;10.80;99.90;;;;;;2096211;28;20036;-74
2023/05/24 03:16:43;;;;;;;17.85;4.50;;;10.80;99.90;;;;;;2094043;28;20151;-75
2023/05/24 03:17:43;;;;;;;17.08;4.70;;;10.90;99.90;;;;;;2086909;28;20053;-74
2023/05/24 03:18:44;;;;;;;16.88;4.45;;;10.80;99.90;;;;;;2095946;28;20032;-74
2023/05/24 03:19:44;;;;;;;18.27;4.82;;;10.80;99.90;;;;;;2104203;28;20708;-74
2023/05/24 03:20:46;;;;;;;22.00;5.07;;;10.70;99.90;;;;;;2104227;28;20079;-74
2023/05/24 03:21:47;;;;;;;13.38;4.53;;;10.70;99.90;;;;;;2102478;28;20032;-74
2023/05/24 03:22:47;;;;;;;16.98;4.63;;;10.70;99.90;;;;;;2104166;28;20032;-76
2023/05/24 03:23:49;;;;;;;17.40;4.82;;;10.70;99.90;;;;;;2096298;28;20024;-75
2023/05/24 03:24:49;;;;;;;15.98;4.55;;;10.70;99.90;;;;;;2095869;28;20423;-76
2023/05/24 03:25:50;;;;;;;16.77;4.40;;;10.70;99.90;;;;;;2095812;28;20035;-77
2023/05/24 03:26:51;;;;;;;18.17;4.70;;;10.70;99.90;;;;;;2085477;28;20107;-76
2023/05/24 03:27:51;;;;;;;17.92;4.30;;;10.60;99.90;;;;;;2087040;28;20036;-75
2023/05/24 03:28:53;;;;;;;15.27;4.75;;;10.60;99.90;;;;;;2087826;28;20029;-75
2023/05/24 03:29:58;;;;;;;16.33;4.55;;;10.60;99.90;;;;;;2096527;28;20178;-74
2023/05/24 03:31:03;;;;;;;13.57;4.25;;;10.60;99.90;;;;;;2096163;28;20111;-74
2023/05/24 03:32:03;;;;;;;14.90;4.35;;;10.70;99.90;;;;;;2093836;28;20020;-74
2023/05/24 03:33:04;;;;;;;18.08;5.00;;;10.70;99.90;;;;;;2088084;28;20047;-75
2023/05/24 03:34:05;;;;;;;19.67;5.00;;;10.70;99.90;;;;;;2095337;28;20108;-74
2023/05/24 03:35:10;;;;;;;17.90;4.90;;;10.70;99.90;;;;;;2095787;28;20060;-74
2023/05/24 03:36:11;;;;;;;15.27;4.47;;;10.70;99.90;;;;;;2095733;28;20047;-75
2023/05/24 03:37:12;;;;;;;13.40;4.35;;;10.70;99.90;;;;;;2093602;28;20545;-75
2023/05/24 03:38:14;;;;;;;16.65;4.78;;;10.80;99.90;;;;;;2087885;28;20048;-75
2023/05/24 03:39:19;;;;;;;14.60;4.40;;;10.80;99.90;;;;;;2088304;28;20029;-74
2023/05/24 03:40:31;;;;;;;17.92;4.93;;;10.80;99.90;;;;;;2096802;28;20098;-75
2023/05/24 03:41:36;;;;;;;13.32;4.35;;;10.80;99.90;;;;;;2094824;28;20468;-75
2023/05/24 03:42:37;;;;;;;16.23;4.78;;;10.80;99.90;;;;;;2087447;28;20029;-74
2023/05/24 03:43:40;;;;;;;16.05;4.85;;;10.80;99.90;;;;;;2079963;28;20025;-74
2023/05/24 03:44:46;;;;;;;15.68;4.90;;;10.80;99.90;;;;;;2095858;28;20086;-74
2023/05/24 03:45:46;;;;;;;14.57;4.50;;;10.80;99.90;;;;;;2103547;28;20481;-74
2023/05/24 03:46:47;;;;;;;17.85;4.20;;;10.80;99.90;;;;;;2111255;28;20039;-75
2023/05/24 03:47:48;;;;;;;16.60;4.25;;;10.80;99.90;;;;;;2113242;28;20089;-74
2023/05/24 03:48:48;;;;;;;14.85;4.70;;;10.80;99.90;;;;;;2113311;28;20035;-75
2023/05/24 03:49:50;;;;;;;17.30;4.47;;;10.80;99.90;;;;;;2104201;28;20032;-76
2023/05/24 03:50:50;;;;;;;18.65;4.70;;;10.80;99.90;;;;;;2095681;28;20063;-75
2023/05/24 03:51:51;;;;;;;19.27;5.05;;;10.70;99.90;;;;;;2085617;28;20040;-75
2023/05/24 03:52:52;;;;;;;16.10;4.07;;;10.70;99.90;;;;;;2095716;28;20075;-75
2023/05/24 03:53:52;;;;;;;19.58;4.60;;;10.70;99.90;;;;;;2095775;28;20059;-75
2023/05/24 03:54:53;;;;;;;14.25;4.45;;;10.70;99.90;;;;;;2095578;28;20048;-75
2023/05/24 03:55:54;;;;;;;16.35;4.85;;;10.70;99.90;;;;;;2095458;28;20492;-75
2023/05/24 03:56:56;;;;;;;13.15;4.32;;;10.70;99.90;;;;;;2099781;28;20032;-75
2023/05/24 03:57:58;;;;;;;14.00;4.00;;;10.60;99.90;;;;;;2104721;28;20028;-75
2023/05/24 03:59:02;;;;;;;14.10;4.20;;;10.70;99.90;;;;;;2103761;28;20499;-75
2023/05/24 04:00:06;;;;;;;18.80;4.68;;;10.70;99.90;;;;;;2096928;28;20048;-75
2023/05/24 04:01:14;;;;;;;17.30;4.60;;;10.60;99.90;;;;;;2094188;28;20603;-75
2023/05/24 04:02:15;;;;;;;15.57;4.35;;;10.60;99.90;;;;;;2096990;28;20024;-75
2023/05/24 04:03:18;;;;;;;19.40;4.85;;;10.60;99.90;;;;;;2104006;28;20771;-75
2023/05/24 04:04:19;;;;;;;15.50;4.43;;;10.60;99.90;;;;;;2096033;28;20575;-75
2023/05/24 04:05:19;;;;;;;16.65;4.40;;;10.60;99.90;;;;;;2103958;28;20028;-74
2023/05/24 04:06:27;;;;;;;16.25;4.32;;;10.60;99.90;;;;;;2100917;28;20028;-75
2023/05/24 04:07:28;;;;;;;17.05;4.78;;;10.60;99.90;;;;;;2095659;28;20025;-74
2023/05/24 04:08:30;;;;;;;15.40;4.35;;;10.50;99.90;;;;;;2086883;28;20412;-73
2023/05/24 04:09:32;;;;;;;17.60;4.22;;;10.60;99.90;;;;;;2087662;28;20036;-73
2023/05/24 04:10:32;;;;;;;13.25;4.43;;;10.60;99.90;;;;;;2103716;28;20038;-73
2023/05/24 04:11:33;;;;;;;19.33;4.45;;;10.60;99.90;;;;;;2096420;28;20496;-73
2023/05/24 04:12:34;;;;;;;14.63;4.30;;;10.60;99.90;;;;;;2104377;28;20122;-73
2023/05/24 04:13:35;;;;;;;17.23;4.38;;;10.60;99.90;;;;;;2104477;28;20106;-73
2023/05/24 04:14:35;;;;;;;13.48;4.75;;;10.70;99.90;;;;;;2094566;28;20046;-73
2023/05/24 04:15:39;;;;;;;21.65;4.35;;;10.70;99.90;;;;;;2095011;28;20032;-73
2023/05/24 04:16:40;;;;;;;17.95;4.63;;;10.60;99.90;;;;;;2105955;27;20023;-74
2023/05/24 04:17:42;;;;;;;15.85;4.45;;;10.70;99.90;;;;;;2104575;28;20035;-73
2023/05/24 04:18:44;;;;;;;14.60;4.13;;;10.60;99.90;;;;;;2103913;28;20032;-73
2023/05/24 04:19:45;;;;;;;18.90;4.88;;;10.60;99.90;;;;;;2117526;27;20429;-74
2023/05/24 04:20:46;;;;;;;14.82;4.28;;;10.60;99.90;;;;;;2113095;28;20023;-75
2023/05/24 04:21:47;;;;;;;19.05;4.68;;;10.60;99.90;;;;;;2114548;27;20489;-75
2023/05/24 04:22:48;;;;;;;19.40;4.85;;;10.60;99.90;;;;;;2113664;28;20051;-74
2023/05/24 04:23:48;;;;;;;16.63;4.15;;;10.60;99.90;;;;;;2115688;27;20494;-74
2023/05/24 04:24:49;;;;;;;15.15;4.15;;;10.70;99.90;;;;;;2112222;28;20112;-74
2023/05/24 04:25:49;;;;;;;18.25;4.82;;;10.70;99.90;;;;;;2105887;28;20454;-74
2023/05/24 04:26:50;;;;;;;15.50;4.45;;;10.80;99.90;;;;;;2112257;28;20015;-75
2023/05/24 04:27:52;;;;;;;14.05;4.47;;;10.80;99.90;;;;;;2114069;28;20024;-74
2023/05/24 04:28:53;;;;;;;17.63;4.45;;;10.90;99.90;;;;;;2112890;28;20023;-75
2023/05/24 04:29:53;;;;;;;16.13;4.75;;;10.80;99.90;;;;;;2104177;28;20330;-74
2023/05/24 04:30:56;;;;;;;18.52;4.57;;;10.80;99.90;;;;;;2112761;28;20031;-75
2023/05/24 04:31:59;;;;;;;18.27;4.55;;;10.80;99.90;;;;;;2103099;28;20039;-75
2023/05/24 04:33:00;;;;;;;15.23;4.70;;;10.90;99.90;;;;;;2112048;27;20031;-74
2023/05/24 04:34:03;;;;;;;18.67;4.72;;;10.90;99.90;;;;;;2104215;28;20185;-73
2023/05/24 04:35:04;;;;;;;16.13;4.40;;;10.90;99.90;;;;;;2119987;27;20030;-74
2023/05/24 04:36:07;;;;;;;12.85;4.00;;;10.90;99.90;;;;;;2121127;27;20023;-74
2023/05/24 04:37:07;;;;;;;17.02;4.40;;;10.90;99.90;;;;;;2110688;28;20043;-74
2023/05/24 04:38:11;;;;;;;15.02;4.43;;;10.90;99.90;;;;;;2111519;28;20129;-75
2023/05/24 04:39:11;;;;;;;18.08;4.57;;;10.90;99.90;;;;;;2120387;27;20027;-74
2023/05/24 04:40:12;;;;;;;21.58;4.90;;;10.80;99.90;;;;;;2113990;28;20062;-74
2023/05/24 04:41:13;;;;;;;13.07;4.32;;;10.80;99.90;;;;;;2097720;28;20040;-75
2023/05/24 04:42:14;;;;;;;13.77;4.05;;;10.80;99.90;;;;;;2104699;28;20058;-75
2023/05/24 04:43:15;;;;;;;17.85;4.85;;;10.80;99.90;;;;;;2104415;28;20205;-75
2023/05/24 04:44:16;;;;;;;15.40;4.80;;;10.90;99.90;;;;;;2114935;28;20101;-75
2023/05/24 04:45:16;;;;;;;20.50;4.95;;;10.90;99.90;;;;;;2115154;28;20039;-75
2023/05/24 04:46:17;;;;;;;16.90;4.75;;;11.00;99.90;;;;;;2101906;28;20036;-75
2023/05/24 04:47:18;;;;;;;16.02;4.82;;;11.00;99.90;;;;;;2103481;28;20118;-75
2023/05/24 04:48:20;;;;;;;20.00;4.50;;;11.00;99.90;;;;;;2111902;28;20028;-75
2023/05/24 04:49:21;;;;;;;13.70;4.10;;;10.90;99.90;;;;;;2103586;28;20040;-75
2023/05/24 04:50:22;;;;;;;20.00;4.70;;;10.90;99.90;;;;;;2087094;28;20077;-74
2023/05/24 04:51:23;;;;;;;16.55;5.07;;;10.90;99.90;;;;;;2084959;28;20028;-74
2023/05/24 04:52:23;;;;;;;17.65;4.78;;;10.90;99.90;;;;;;2104011;28;20600;-74
2023/05/24 04:53:24;;;;;;;16.15;4.28;;;10.90;99.90;;;;;;2103510;28;20031;-74
2023/05/24 04:54:25;;;;;;;18.00;4.50;;;11.00;99.90;;;;;;2103668;28;20414;-74
2023/05/24 04:55:25;;;;;;;15.55;4.35;;;11.00;99.90;;;;;;2112610;28;20035;-75
2023/05/24 04:56:26;;;;;;;15.70;4.63;;;11.00;99.90;;;;;;2112659;27;20031;-75
2023/05/24 04:57:26;;;;;;;13.38;4.40;;;10.90;99.90;;;;;;2112094;28;20042;-73
2023/05/24 04:58:27;;;;;;;17.83;4.55;;;10.90;99.90;;;;;;2095776;28;20032;-75
2023/05/24 04:59:27;;;;;;;19.50;4.95;;;11.00;99.90;;;;;;2103279;28;20075;-75
2023/05/24 05:00:28;;;;;;;17.10;4.60;;;11.00;99.90;;;;;;2103579;28;20110;-74
2023/05/24 05:01:29;;;;;;;17.95;4.65;;;11.00;99.90;;;;;;2093154;28;20036;-75
2023/05/24 05:02:31;;;;;;;17.45;4.55;;;10.90;99.90;;;;;;2103838;28;20039;-74
2023/05/24 05:03:31;;;;;;;15.43;4.50;;;10.90;99.90;;;;;;2112675;28;20035;-74
2023/05/24 05:04:32;;;;;;;13.30;4.07;;;10.80;99.90;;;;;;2112508;28;20114;-73
2023/05/24 05:05:33;;;;;;;16.40;4.65;;;10.90;99.90;;;;;;2112085;28;20028;-73
2023/05/24 05:06:37;;;;;;;18.65;4.70;;;11.00;99.90;;;;;;2101467;28;20036;-74
2023/05/24 05:07:37;;;;;;;17.00;4.60;;;11.00;99.90;;;;;;2103846;28;20040;-73
2023/05/24 05:08:38;;;;;;;15.77;4.38;;;11.00;99.90;;;;;;2098658;28;20067;-74
2023/05/24 05:09:39;;;;;;;15.05;4.50;;;10.90;99.90;;;;;;2095078;28;20044;-73
2023/05/24 05:10:39;;;;;;;17.67;4.40;;;10.90;99.90;;;;;;2103369;28;20123;-74
2023/05/24 05:11:40;;;;;;;15.82;4.35;;;10.90;99.90;;;;;;2110603;28;20031;-74
2023/05/24 05:12:41;;;;;;;21.88;5.10;;;10.80;99.90;;;;;;2112892;28;20063;-74
2023/05/24 05:13:42;;;;;;;17.33;4.93;;;10.80;99.90;;;;;;2112582;28;20596;-74
2023/05/24 05:14:42;;;;;;;15.25;4.60;;;10.80;99.90;;;;;;2112260;28;20040;-74
2023/05/24 05:15:43;;;;;;;14.38;4.70;;;10.90;99.90;;;;;;2112321;28;20433;-74
2023/05/24 05:16:45;;;;;;;16.77;4.68;;;10.90;99.90;;;;;;2097538;28;20508;-76
2023/05/24 05:17:45;;;;;;;15.38;4.70;;;10.90;99.90;;;;;;2095302;28;20021;-73
2023/05/24 05:18:46;;;;;;;15.20;4.70;;;10.80;99.90;;;;;;2102654;28;20032;-74
2023/05/24 05:19:46;;;;;;;13.10;4.38;;;10.80;99.90;;;;;;2103269;28;20747;-73
2023/05/24 05:20:47;;;;;;;22.83;5.03;;;10.80;99.90;;;;;;2112755;28;20851;-74
2023/05/24 05:21:48;;;;;;;16.55;5.10;;;10.90;99.90;;;;;;2110571;28;20024;-74
2023/05/24 05:22:48;;;;;;;15.77;4.57;;;10.90;99.90;;;;;;2103306;28;20074;-74